createdAt,value
2016-12-20T04:02:13.882Z,21.41
2016-12-20T04:02:44.438Z,21.53
2016-12-20T04:03:15.053Z,21.42
2016-12-20T04:03:45.602Z,21.45
2016-12-20T04:04:16.150Z,21.48
2016-12-20T04:04:46.770Z,21.46
2016-12-20T04:05:17.328Z,21.46
2016-12-20T04:05:48.008Z,21.45
2016-12-20T04:06:18.565Z,21.46
2016-12-20T04:06:49.151Z,21.46
2016-12-20T04:07:19.723Z,21.42
2016-12-20T04:07:50.275Z,21.45
2016-12-20T04:08:20.920Z,21.53
2016-12-20T04:08:51.619Z,21.53
2016-12-20T04:09:22.213Z,21.51
2016-12-20T04:09:52.825Z,21.51
2016-12-20T04:10:23.343Z,21.38
2016-12-20T04:10:53.942Z,21.48
2016-12-20T04:11:24.538Z,21.48
2016-12-20T04:11:55.100Z,21.53
2016-12-20T04:12:25.684Z,21.51
2016-12-20T04:12:56.239Z,21.48
2016-12-20T04:13:26.810Z,21.5
2016-12-20T04:13:57.382Z,21.5
2016-12-20T04:14:27.957Z,21.54
2016-12-20T04:14:58.507Z,21.46
2016-12-20T04:15:29.067Z,21.45
2016-12-20T04:15:59.650Z,21.46
2016-12-20T04:16:30.311Z,21.5
2016-12-20T04:17:00.864Z,21.51
2016-12-20T04:17:31.485Z,21.51
2016-12-20T04:18:02.069Z,21.53
2016-12-20T04:18:32.648Z,21.51
2016-12-20T04:19:03.221Z,21.51
2016-12-20T04:19:33.792Z,21.54
2016-12-20T04:20:04.373Z,21.51
2016-12-20T04:20:34.975Z,21.51
2016-12-20T04:21:05.528Z,21.46
2016-12-20T04:21:36.111Z,21.46
2016-12-20T04:22:06.656Z,21.54
2016-12-20T04:22:37.282Z,21.5
2016-12-20T04:23:07.837Z,21.48
2016-12-20T04:23:38.384Z,21.5
2016-12-20T04:24:08.944Z,21.54
2016-12-20T04:24:39.568Z,21.56
2016-12-20T04:25:10.186Z,21.51
2016-12-20T04:25:40.749Z,21.5
2016-12-20T04:26:11.320Z,21.54
2016-12-20T04:26:41.901Z,21.51
2016-12-20T04:27:12.512Z,21.51
2016-12-20T04:27:43.075Z,21.5
2016-12-20T04:28:13.629Z,21.51
2016-12-20T04:28:44.208Z,21.46
2016-12-20T04:29:14.755Z,21.53
2016-12-20T04:30:21.510Z,21.48
2016-12-20T04:30:52.069Z,21.5
2016-12-20T04:31:22.648Z,21.48
2016-12-20T04:31:53.219Z,21.48
2016-12-20T04:32:23.789Z,21.45
2016-12-20T04:32:54.370Z,21.38
2016-12-20T04:33:24.915Z,21.51
2016-12-20T04:33:55.528Z,21.39
2016-12-20T04:34:26.074Z,21.51
2016-12-20T04:34:56.648Z,21.46
2016-12-20T04:35:27.235Z,21.46
2016-12-20T04:35:57.851Z,21.36
2016-12-20T04:36:28.523Z,21.41
2016-12-20T04:36:59.144Z,21.44
2016-12-20T04:37:29.781Z,21.39
2016-12-20T04:38:00.320Z,21.51
2016-12-20T04:38:31.044Z,21.48
2016-12-20T04:39:01.650Z,21.48
2016-12-20T04:39:32.197Z,21.46
2016-12-20T04:40:03.465Z,21.48
2016-12-20T04:40:34.028Z,21.48
2016-12-20T04:41:04.707Z,21.46
2016-12-20T04:41:35.400Z,21.44
2016-12-20T04:42:05.980Z,21.46
2016-12-20T04:42:36.593Z,21.39
2016-12-20T04:43:07.143Z,21.41
2016-12-20T04:43:37.730Z,21.42
2016-12-20T04:44:08.331Z,21.45
2016-12-20T04:44:38.889Z,21.42
2016-12-20T04:45:09.488Z,21.46
2016-12-20T04:45:40.057Z,21.45
2016-12-20T04:46:10.616Z,21.46
2016-12-20T04:46:41.191Z,21.36
2016-12-20T04:47:11.957Z,21.46
2016-12-20T04:47:42.514Z,21.46
2016-12-20T04:48:13.085Z,21.44
2016-12-20T04:48:43.656Z,21.45
2016-12-20T04:49:14.228Z,21.5
2016-12-20T04:49:44.793Z,21.53
2016-12-20T04:50:15.361Z,21.5
2016-12-20T04:50:45.931Z,21.48
2016-12-20T04:51:16.496Z,21.41
2016-12-20T04:51:47.051Z,21.42
2016-12-20T04:52:17.645Z,21.5
2016-12-20T04:52:48.209Z,21.44
2016-12-20T04:53:18.785Z,21.5
2016-12-20T04:53:49.371Z,21.44
2016-12-20T04:54:19.929Z,21.46
2016-12-20T04:54:50.537Z,21.48
2016-12-20T04:55:21.110Z,21.42
2016-12-20T04:55:51.680Z,21.5
2016-12-20T04:56:22.253Z,21.5
2016-12-20T04:56:52.828Z,21.45
2016-12-20T04:57:23.453Z,21.41
2016-12-20T04:57:54.024Z,21.45
2016-12-20T04:58:24.675Z,21.42
2016-12-20T04:58:55.234Z,21.44
2016-12-20T04:59:25.806Z,21.5
2016-12-20T04:59:56.369Z,21.46
2016-12-20T05:00:26.940Z,21.46
2016-12-20T05:00:57.486Z,21.48
2016-12-20T05:01:28.062Z,21.45
2016-12-20T05:01:58.651Z,21.45
2016-12-20T05:02:29.214Z,21.46
2016-12-20T05:02:59.777Z,21.44
2016-12-20T05:03:30.343Z,21.46
2016-12-20T05:04:00.910Z,21.44
2016-12-20T05:04:31.478Z,21.5
2016-12-20T05:05:02.053Z,21.38
2016-12-20T05:05:32.717Z,21.41
2016-12-20T05:06:03.240Z,21.42
2016-12-20T05:06:33.841Z,21.53
2016-12-20T05:07:04.394Z,21.54
2016-12-20T05:07:34.969Z,21.53
2016-12-20T05:08:05.620Z,21.46
2016-12-20T05:08:36.190Z,21.54
2016-12-20T05:09:06.757Z,21.46
2016-12-20T05:09:37.329Z,21.48
2016-12-20T05:10:07.899Z,21.51
2016-12-20T05:10:38.469Z,21.44
2016-12-20T05:11:09.086Z,21.5
2016-12-20T05:11:39.662Z,21.48
2016-12-20T05:12:10.312Z,21.46
2016-12-20T05:12:41.197Z,21.45
2016-12-20T05:13:11.846Z,21.46
2016-12-20T05:13:42.375Z,21.5
2016-12-20T05:14:13.059Z,21.46
2016-12-20T05:14:43.627Z,21.44
2016-12-20T05:15:14.241Z,21.46
2016-12-20T05:15:44.880Z,21.44
2016-12-20T05:16:15.360Z,21.48
2016-12-20T05:16:45.936Z,21.46
2016-12-20T05:17:16.516Z,21.46
2016-12-20T05:17:47.133Z,21.41
2016-12-20T05:18:17.699Z,21.41
2016-12-20T05:18:48.309Z,21.41
2016-12-20T05:19:18.987Z,21.39
2016-12-20T05:19:49.558Z,21.45
2016-12-20T05:20:20.243Z,21.46
2016-12-20T05:20:50.813Z,21.44
2016-12-20T05:21:21.449Z,21.5
2016-12-20T05:21:52.116Z,21.46
2016-12-20T05:22:22.941Z,21.44
2016-12-20T05:22:53.526Z,21.46
2016-12-20T05:23:24.161Z,21.46
2016-12-20T05:23:54.710Z,21.51
2016-12-20T06:01:00.569Z,18.94
2016-12-20T06:03:13.028Z,19.43
2016-12-20T06:03:43.581Z,19.57
2016-12-20T06:04:14.158Z,19.68
2016-12-20T06:04:44.726Z,19.68
2016-12-20T06:05:15.297Z,19.83
2016-12-20T06:05:45.850Z,19.91
2016-12-20T06:06:16.398Z,19.9
2016-12-20T06:06:46.960Z,19.94
2016-12-20T06:07:17.623Z,20.03
2016-12-20T06:07:48.182Z,20.02
2016-12-20T06:08:18.769Z,20.1
2016-12-20T06:08:49.377Z,20.16
2016-12-20T06:09:19.929Z,20.16
2016-12-20T06:09:50.504Z,20.18
2016-12-20T06:10:21.089Z,20.2
2016-12-20T06:10:51.667Z,20.25
2016-12-20T06:11:22.218Z,20.33
2016-12-20T06:11:52.776Z,20.25
2016-12-20T06:12:23.439Z,20.3
2016-12-20T06:12:54.008Z,20.35
2016-12-20T06:14:00.637Z,20.39
2016-12-20T06:14:31.196Z,20.47
2016-12-20T06:15:01.767Z,20.5
2016-12-20T06:15:32.364Z,20.59
2016-12-20T06:16:02.947Z,20.53
2016-12-20T06:16:33.561Z,20.65
2016-12-20T06:17:04.120Z,20.58
2016-12-20T06:17:34.701Z,20.66
2016-12-20T06:18:05.304Z,20.69
2016-12-20T06:18:35.886Z,20.68
2016-12-20T06:19:06.536Z,20.68
2016-12-20T06:19:37.086Z,20.76
2016-12-20T06:20:07.663Z,20.71
2016-12-20T06:20:38.252Z,20.74
2016-12-20T06:21:08.805Z,20.77
2016-12-20T06:21:39.372Z,20.81
2016-12-20T06:22:09.940Z,20.77
2016-12-20T06:22:40.501Z,20.77
2016-12-20T06:23:11.066Z,20.69
2016-12-20T06:23:41.634Z,20.62
2016-12-20T06:24:12.251Z,20.47
2016-12-20T06:24:42.823Z,20.34
2016-12-20T06:25:13.433Z,20.2
2016-12-20T06:25:44.043Z,20.25
2016-12-20T06:26:14.625Z,20.28
2016-12-20T06:26:45.202Z,20.27
2016-12-20T06:27:15.766Z,20.28
2016-12-20T06:27:46.338Z,20.21
2016-12-20T06:28:16.908Z,20.27
2016-12-20T06:28:47.542Z,20.27
2016-12-20T06:29:18.099Z,20.39
2016-12-20T06:29:48.637Z,20.38
2016-12-20T06:30:19.912Z,20.3
2016-12-20T06:30:50.588Z,20.38
2016-12-20T06:31:21.154Z,20.46
2016-12-20T06:31:51.751Z,20.56
2016-12-20T06:32:22.351Z,20.51
2016-12-20T06:32:52.910Z,20.49
2016-12-20T06:33:23.517Z,20.53
2016-12-20T06:33:54.097Z,20.56
2016-12-20T06:34:24.670Z,20.64
2016-12-20T06:34:55.205Z,20.62
2016-12-20T06:35:25.782Z,20.59
2016-12-20T06:35:56.348Z,20.59
2016-12-20T06:36:26.903Z,20.66
2016-12-20T06:36:57.462Z,20.71
2016-12-20T06:45:38.874Z,22.82
2016-12-20T06:47:03.428Z,22.51
2016-12-20T06:47:33.980Z,22.52
2016-12-20T06:48:04.517Z,22.58
2016-12-20T06:48:35.053Z,22.3
2016-12-20T06:49:05.608Z,22.43
2016-12-20T06:49:36.168Z,22.3
2016-12-20T06:50:06.756Z,22.22
2016-12-20T06:50:37.397Z,22.17
2016-12-20T06:51:07.931Z,22.17
2016-12-20T06:52:14.525Z,22.37
2016-12-20T06:52:45.123Z,22.33
2016-12-20T06:53:15.675Z,22.54
2016-12-20T06:53:46.336Z,22.62
2016-12-20T06:54:16.895Z,22.72
2016-12-20T06:54:47.562Z,22.65
2016-12-20T06:55:18.076Z,22.49
2016-12-20T06:55:48.712Z,22.58
2016-12-20T06:56:19.248Z,22.49
2016-12-20T06:56:49.811Z,22.49
2016-12-20T06:58:48.936Z,22.68
2016-12-20T06:59:19.599Z,22.58
2016-12-20T07:01:17.257Z,21.88
2016-12-20T07:01:47.776Z,21.72
2016-12-20T07:02:18.303Z,21.53
2016-12-20T07:03:25.347Z,21.27
2016-12-20T07:03:55.927Z,21.31
2016-12-20T07:04:26.492Z,21.32
2016-12-20T07:04:57.014Z,21.31
2016-12-20T07:05:27.629Z,21.42
2016-12-20T07:05:58.141Z,21.31
2016-12-20T07:06:28.630Z,21.42
2016-12-20T07:06:59.449Z,21.37
2016-12-20T07:07:29.947Z,21.42
2016-12-20T07:08:00.485Z,21.44
2016-12-20T07:08:30.997Z,21.49
2016-12-20T07:09:01.484Z,21.49
2016-12-20T07:09:31.993Z,21.47
2016-12-20T07:10:02.538Z,21.4
2016-12-20T07:10:33.058Z,21.43
2016-12-20T07:11:03.576Z,21.53
2016-12-20T07:11:34.076Z,21.42
2016-12-20T07:12:04.589Z,21.44
2016-12-20T07:12:35.089Z,21.38
2016-12-20T07:13:05.580Z,21.47
2016-12-20T07:13:36.090Z,21.54
2016-12-20T07:14:06.603Z,21.54
2016-12-20T07:14:37.085Z,21.53
2016-12-20T07:15:44.089Z,21.53
2016-12-20T07:16:14.648Z,21.61
2016-12-20T07:16:45.130Z,21.54
2016-12-20T07:17:15.718Z,21.58
2016-12-20T07:17:46.309Z,21.59
2016-12-20T07:18:16.838Z,21.53
2016-12-20T07:18:47.388Z,21.54
2016-12-20T07:19:17.885Z,21.61
2016-12-20T07:19:48.408Z,21.54
2016-12-20T07:20:19.010Z,21.62
2016-12-20T07:20:49.540Z,21.62
2016-12-20T07:21:20.041Z,21.65
2016-12-20T07:21:50.547Z,21.61
2016-12-20T07:22:21.138Z,21.65
2016-12-20T07:22:51.700Z,21.59
2016-12-20T07:23:22.336Z,21.58
2016-12-20T07:23:52.840Z,21.58
2016-12-20T07:24:23.344Z,21.62
2016-12-20T07:24:53.979Z,21.62
2016-12-20T07:25:24.504Z,21.72
2016-12-20T07:25:55.030Z,21.69
2016-12-20T07:26:25.549Z,21.69
2016-12-20T07:26:56.058Z,21.61
2016-12-20T07:27:26.567Z,21.64
2016-12-20T07:27:57.072Z,21.62
2016-12-20T07:28:27.662Z,21.67
2016-12-20T07:28:58.284Z,21.59
2016-12-20T07:29:28.793Z,21.68
2016-12-20T07:29:59.314Z,21.62
2016-12-20T07:30:29.871Z,21.62
2016-12-20T07:31:00.379Z,21.74
2016-12-20T07:31:30.892Z,21.65
2016-12-20T07:32:01.396Z,21.69
2016-12-20T07:32:31.943Z,21.65
2016-12-20T07:33:02.464Z,21.67
2016-12-20T07:33:32.966Z,21.58
2016-12-20T07:34:03.488Z,21.69
2016-12-20T07:34:33.997Z,21.69
2016-12-20T07:35:04.513Z,21.72
2016-12-20T07:35:35.013Z,21.68
2016-12-20T07:36:05.537Z,21.69
2016-12-20T07:36:36.146Z,21.72
2016-12-20T07:37:06.710Z,21.69
2016-12-20T07:37:37.228Z,21.71
2016-12-20T07:38:07.775Z,21.74
2016-12-20T07:38:38.266Z,21.68
2016-12-20T07:39:08.780Z,21.67
2016-12-20T07:39:39.287Z,21.64
2016-12-20T07:40:09.787Z,21.64
2016-12-20T07:40:40.302Z,21.65
2016-12-20T07:41:10.800Z,21.64
2016-12-20T07:41:41.305Z,21.61
2016-12-20T07:42:11.821Z,21.68
2016-12-20T07:42:42.452Z,21.67
2016-12-20T07:43:12.964Z,21.74
2016-12-20T07:43:43.476Z,21.79
2016-12-20T07:44:14.125Z,21.74
2016-12-20T07:44:44.636Z,21.68
2016-12-20T07:45:15.160Z,21.62
2016-12-20T07:45:45.676Z,21.64
2016-12-20T07:46:16.202Z,21.65
2016-12-20T07:46:46.714Z,21.65
2016-12-20T07:47:17.213Z,21.69
2016-12-20T07:47:47.769Z,21.69
2016-12-20T07:48:18.265Z,21.75
2016-12-20T07:48:48.896Z,21.64
2016-12-20T07:49:19.508Z,21.77
2016-12-20T07:49:50.021Z,21.64
2016-12-20T07:50:20.532Z,21.79
2016-12-20T07:50:51.040Z,21.71
2016-12-20T07:51:21.547Z,21.64
2016-12-20T07:51:52.077Z,21.69
2016-12-20T07:52:22.688Z,21.72
2016-12-20T07:52:53.207Z,21.72
2016-12-20T07:53:23.703Z,21.64
2016-12-20T07:53:54.393Z,21.67
2016-12-20T07:54:24.902Z,21.82
2016-12-20T07:54:55.483Z,21.72
2016-12-20T07:55:26.066Z,21.69
2016-12-20T07:55:56.591Z,21.62
2016-12-20T07:56:27.146Z,21.69
2016-12-20T07:56:57.648Z,21.71
2016-12-20T07:57:28.156Z,21.68
2016-12-20T07:57:58.673Z,21.69
2016-12-20T07:58:29.212Z,21.67
2016-12-20T07:58:59.757Z,21.69
2016-12-20T07:59:30.270Z,21.65
2016-12-20T08:00:00.853Z,21.68
2016-12-20T08:00:31.339Z,21.69
2016-12-20T08:01:01.837Z,21.68
2016-12-20T08:01:32.397Z,21.74
2016-12-20T08:02:02.896Z,21.69
2016-12-20T08:02:33.500Z,21.74
2016-12-20T08:03:04.016Z,21.71
2016-12-20T08:03:34.507Z,21.71
2016-12-20T08:04:05.010Z,21.72
2016-12-20T08:04:35.591Z,21.68
2016-12-20T08:05:06.126Z,21.68
2016-12-20T08:05:36.661Z,21.65
2016-12-20T08:06:07.157Z,21.71
2016-12-20T08:06:37.645Z,21.65
2016-12-20T08:07:08.308Z,21.61
2016-12-20T08:07:38.811Z,21.75
2016-12-20T08:08:09.305Z,21.75
2016-12-20T08:08:39.912Z,21.79
2016-12-20T08:09:10.418Z,21.74
2016-12-20T08:09:40.961Z,21.67
2016-12-20T08:10:11.491Z,21.71
2016-12-20T08:10:42.009Z,21.69
2016-12-20T08:11:12.505Z,21.67
2016-12-20T08:11:43.128Z,21.72
2016-12-20T08:12:13.650Z,21.72
2016-12-20T08:12:44.292Z,21.65
2016-12-20T08:13:14.827Z,21.74
2016-12-20T08:13:45.380Z,21.74
2016-12-20T08:14:15.977Z,21.8
2016-12-20T08:14:46.598Z,21.8
2016-12-20T08:15:17.142Z,21.79
2016-12-20T08:15:47.700Z,21.79
2016-12-20T08:16:18.342Z,21.8
2016-12-20T08:16:48.862Z,21.79
2016-12-20T08:17:19.433Z,21.65
2016-12-20T08:17:49.948Z,21.67
2016-12-20T08:18:20.472Z,21.71
2016-12-20T08:18:50.988Z,21.74
2016-12-20T08:19:21.542Z,21.72
2016-12-20T08:19:52.041Z,21.71
2016-12-20T08:20:22.567Z,21.75
2016-12-20T08:20:53.098Z,21.79
2016-12-20T08:21:23.615Z,21.67
2016-12-20T08:21:54.128Z,21.65
2016-12-20T08:22:24.650Z,21.72
2016-12-20T08:22:55.161Z,21.71
2016-12-20T08:23:25.751Z,21.74
2016-12-20T08:23:56.320Z,21.67
2016-12-20T08:24:26.831Z,21.77
2016-12-20T08:24:57.329Z,21.74
2016-12-20T08:25:27.842Z,21.72
2016-12-20T08:25:58.346Z,21.69
2016-12-20T08:26:28.863Z,21.75
2016-12-20T08:26:59.368Z,21.72
2016-12-20T08:27:29.937Z,21.83
2016-12-20T08:28:00.572Z,21.74
2016-12-20T08:28:31.071Z,21.77
2016-12-20T08:29:01.635Z,21.8
2016-12-20T08:29:32.173Z,21.68
2016-12-20T08:30:02.685Z,21.8
2016-12-20T08:30:33.198Z,21.74
2016-12-20T08:31:03.689Z,21.77
2016-12-20T08:31:34.186Z,21.75
2016-12-20T08:32:04.721Z,21.74
2016-12-20T08:32:35.322Z,21.77
2016-12-20T08:33:05.839Z,21.75
2016-12-20T08:33:36.372Z,21.71
2016-12-20T08:34:06.860Z,21.65
2016-12-20T08:34:37.363Z,21.69
2016-12-20T08:35:07.858Z,21.69
2016-12-20T08:35:38.439Z,21.67
2016-12-20T08:36:09.043Z,21.65
2016-12-20T08:36:39.696Z,21.72
2016-12-20T08:37:10.201Z,21.75
2016-12-20T08:37:40.711Z,21.79
2016-12-20T08:38:11.246Z,21.69
2016-12-20T08:38:41.892Z,21.8
2016-12-20T08:39:12.422Z,21.65
2016-12-20T08:39:42.935Z,21.72
2016-12-20T08:40:13.439Z,21.71
2016-12-20T08:40:43.957Z,21.77
2016-12-20T08:42:58.015Z,21.67
2016-12-20T08:43:28.508Z,21.67
2016-12-20T08:43:59.025Z,21.72
2016-12-20T08:44:29.534Z,21.67
2016-12-20T08:45:00.044Z,21.77
2016-12-20T08:45:30.541Z,21.74
2016-12-20T08:46:01.035Z,21.68
2016-12-20T08:46:31.642Z,21.71
2016-12-20T08:47:02.172Z,21.74
2016-12-20T08:47:32.686Z,21.68
2016-12-20T08:48:03.192Z,21.71
2016-12-20T08:48:33.831Z,21.72
2016-12-20T08:49:04.360Z,21.62
2016-12-20T08:49:34.939Z,21.75
2016-12-20T08:50:05.495Z,21.69
2016-12-20T08:50:36.036Z,21.65
2016-12-20T08:51:06.566Z,21.86
2016-12-20T08:51:37.028Z,21.8
2016-12-20T08:52:07.546Z,21.82
2016-12-20T08:52:38.187Z,21.62
2016-12-20T08:53:08.691Z,21.77
2016-12-20T08:53:39.315Z,21.77
2016-12-20T08:54:09.833Z,21.82
2016-12-20T08:54:40.339Z,21.8
2016-12-20T08:55:10.969Z,21.77
2016-12-20T08:55:41.499Z,21.74
2016-12-20T08:56:12.011Z,21.77
2016-12-20T08:56:42.530Z,21.77
2016-12-20T08:57:13.065Z,21.8
2016-12-20T08:57:43.639Z,21.67
2016-12-20T08:58:14.178Z,21.84
2016-12-20T08:58:44.687Z,21.77
2016-12-20T08:59:15.301Z,21.8
2016-12-20T08:59:45.856Z,21.82
2016-12-20T09:00:16.493Z,21.8
2016-12-20T09:00:47.031Z,21.77
2016-12-20T09:01:17.644Z,21.84
2016-12-20T09:01:48.154Z,21.88
2016-12-20T09:02:18.653Z,21.82
2016-12-20T09:03:25.652Z,21.9
2016-12-20T09:03:56.164Z,21.86
2016-12-20T09:04:26.675Z,21.77
2016-12-20T09:04:57.249Z,21.98
2016-12-20T09:05:27.745Z,21.83
2016-12-20T09:05:58.401Z,21.88
2016-12-20T09:06:28.910Z,21.91
2016-12-20T09:06:59.502Z,21.92
2016-12-20T09:07:30.006Z,21.86
2016-12-20T09:08:00.516Z,21.86
2016-12-20T09:08:31.049Z,21.8
2016-12-20T09:09:01.569Z,21.83
2016-12-20T09:09:32.081Z,21.77
2016-12-20T09:10:02.603Z,21.8
2016-12-20T09:10:33.129Z,21.9
2016-12-20T09:11:03.739Z,21.9
2016-12-20T09:11:34.228Z,21.88
2016-12-20T09:12:04.731Z,21.91
2016-12-20T09:12:35.402Z,21.9
2016-12-20T09:13:05.936Z,21.79
2016-12-20T09:13:36.438Z,21.94
2016-12-20T09:14:07.021Z,21.91
2016-12-20T09:14:37.541Z,21.88
2016-12-20T09:15:08.043Z,21.91
2016-12-20T09:15:38.550Z,21.8
2016-12-20T09:16:09.189Z,21.83
2016-12-20T09:16:39.693Z,21.92
2016-12-20T09:17:46.723Z,21.9
2016-12-20T09:18:17.248Z,21.91
2016-12-20T09:18:47.733Z,21.94
2016-12-20T09:19:18.240Z,21.94
2016-12-20T09:19:48.777Z,21.91
2016-12-20T09:20:19.297Z,21.94
2016-12-20T09:20:49.906Z,21.84
2016-12-20T09:21:20.424Z,21.77
2016-12-20T09:21:51.041Z,21.79
2016-12-20T09:22:21.559Z,21.9
2016-12-20T09:22:52.174Z,21.82
2016-12-20T09:23:22.684Z,21.82
2016-12-20T09:23:53.196Z,21.94
2016-12-20T09:24:23.678Z,21.84
2016-12-20T09:24:54.203Z,21.83
2016-12-20T09:25:24.718Z,21.84
2016-12-20T09:25:55.316Z,21.84
2016-12-20T09:26:25.830Z,21.82
2016-12-20T09:26:56.337Z,21.92
2016-12-20T09:27:26.907Z,21.86
2016-12-20T09:28:34.040Z,21.9
2016-12-20T09:29:04.573Z,21.96
2016-12-20T09:29:35.147Z,21.94
2016-12-20T09:30:05.730Z,21.86
2016-12-20T09:31:12.739Z,21.9
2016-12-20T09:31:43.498Z,21.84
2016-12-20T09:32:14.029Z,21.88
2016-12-20T09:32:44.521Z,21.88
2016-12-20T09:33:15.000Z,21.96
2016-12-20T09:33:45.528Z,21.94
2016-12-20T09:34:16.042Z,21.9
2016-12-20T09:34:46.545Z,21.98
2016-12-20T09:35:17.128Z,21.84
2016-12-20T09:35:47.642Z,21.9
2016-12-20T09:36:18.163Z,21.92
2016-12-20T09:36:48.797Z,21.91
2016-12-20T09:37:19.306Z,21.91
2016-12-20T09:37:49.816Z,21.86
2016-12-20T09:38:20.391Z,21.99
2016-12-20T09:38:50.912Z,21.94
2016-12-20T09:39:21.446Z,21.98
2016-12-20T09:39:51.957Z,21.92
2016-12-20T09:40:22.493Z,21.9
2016-12-20T09:40:53.065Z,21.98
2016-12-20T09:41:23.629Z,21.9
2016-12-20T09:41:54.273Z,21.82
2016-12-20T09:42:24.790Z,21.91
2016-12-20T09:42:55.303Z,21.88
2016-12-20T09:43:25.842Z,21.88
2016-12-20T09:43:56.348Z,21.83
2016-12-20T09:44:26.900Z,21.8
2016-12-20T09:44:57.394Z,21.88
2016-12-20T09:45:27.893Z,21.86
2016-12-20T09:45:58.406Z,21.83
2016-12-20T09:46:28.960Z,21.83
2016-12-20T09:46:59.476Z,21.82
2016-12-20T09:47:29.966Z,21.94
2016-12-20T09:48:00.522Z,21.99
2016-12-20T09:48:31.049Z,21.9
2016-12-20T09:49:01.636Z,21.94
2016-12-20T09:49:32.140Z,21.65
2016-12-20T09:50:02.653Z,21.8
2016-12-20T09:50:33.159Z,21.75
2016-12-20T09:51:03.661Z,21.82
2016-12-20T09:51:34.151Z,21.84
2016-12-20T09:52:04.671Z,21.8
2016-12-20T09:52:35.236Z,21.83
2016-12-20T09:53:05.830Z,21.84
2016-12-20T09:53:36.340Z,21.8
2016-12-20T09:54:06.863Z,21.82
2016-12-20T09:54:37.383Z,21.72
2016-12-20T09:55:07.876Z,21.84
2016-12-20T09:55:38.398Z,21.82
2016-12-20T09:56:08.894Z,21.77
2016-12-20T09:56:39.431Z,21.71
2016-12-20T09:57:09.936Z,21.67
2016-12-20T09:57:40.423Z,21.69
2016-12-20T09:58:10.916Z,21.75
2016-12-20T09:58:41.425Z,21.67
2016-12-20T09:59:11.943Z,21.69
2016-12-20T09:59:42.447Z,21.84
2016-12-20T10:00:12.983Z,21.8
2016-12-20T10:00:43.522Z,21.79
2016-12-20T10:01:14.034Z,21.83
2016-12-20T10:01:44.558Z,21.83
2016-12-20T10:02:15.057Z,21.74
2016-12-20T10:02:45.558Z,21.68
2016-12-20T10:03:16.060Z,21.75
2016-12-20T10:03:46.567Z,21.75
2016-12-20T10:04:17.088Z,21.68
2016-12-20T10:04:47.586Z,21.72
2016-12-20T10:05:18.214Z,21.74
2016-12-20T10:05:48.737Z,21.65
2016-12-20T10:06:19.366Z,21.8
2016-12-20T10:06:49.861Z,21.79
2016-12-20T10:07:20.379Z,21.71
2016-12-20T10:07:50.899Z,21.77
2016-12-20T10:08:21.416Z,21.83
2016-12-20T10:08:51.925Z,21.72
2016-12-20T10:09:22.433Z,21.82
2016-12-20T10:09:53.004Z,21.8
2016-12-20T10:10:23.595Z,21.61
2016-12-20T10:10:54.083Z,21.74
2016-12-20T10:11:24.593Z,21.72
2016-12-20T10:11:55.110Z,21.68
2016-12-20T10:12:25.628Z,21.68
2016-12-20T10:12:56.147Z,21.67
2016-12-20T10:13:26.641Z,21.74
2016-12-20T10:13:57.216Z,21.61
2016-12-20T10:14:27.730Z,21.72
2016-12-20T10:14:58.252Z,21.74
2016-12-20T10:15:28.744Z,21.77
2016-12-20T10:15:59.251Z,21.74
2016-12-20T10:16:29.760Z,21.79
2016-12-20T10:17:00.272Z,21.68
2016-12-20T10:17:30.857Z,21.75
2016-12-20T10:18:01.360Z,21.72
2016-12-20T10:18:31.860Z,21.77
2016-12-20T10:19:02.347Z,21.71
2016-12-20T10:19:32.853Z,21.72
2016-12-20T10:20:03.408Z,21.61
2016-12-20T10:20:33.953Z,21.74
2016-12-20T10:21:04.521Z,21.82
2016-12-20T10:21:35.140Z,21.83
2016-12-20T10:22:05.629Z,21.82
2016-12-20T10:22:36.127Z,21.77
2016-12-20T10:23:06.659Z,21.83
2016-12-20T10:23:37.203Z,21.77
2016-12-20T10:24:07.718Z,21.8
2016-12-20T10:24:38.392Z,21.65
2016-12-20T10:25:08.925Z,21.82
2016-12-20T10:25:39.401Z,21.74
2016-12-20T10:26:10.050Z,21.82
2016-12-20T10:26:40.546Z,21.77
2016-12-20T10:27:11.045Z,21.82
2016-12-20T10:27:41.550Z,21.8
2016-12-20T10:28:12.065Z,21.83
2016-12-20T10:28:42.571Z,21.84
2016-12-20T10:29:13.080Z,21.79
2016-12-20T10:29:43.588Z,21.83
2016-12-20T10:30:14.073Z,21.82
2016-12-20T10:30:44.579Z,21.79
2016-12-20T10:31:15.081Z,21.82
2016-12-20T10:31:45.729Z,21.86
2016-12-20T10:32:16.270Z,21.9
2016-12-20T10:32:46.800Z,21.83
2016-12-20T10:33:17.323Z,21.74
2016-12-20T10:33:47.829Z,21.84
2016-12-20T10:34:18.363Z,21.82
2016-12-20T10:34:48.863Z,21.83
2016-12-20T10:35:19.384Z,21.9
2016-12-20T10:35:49.883Z,21.91
2016-12-20T10:36:20.399Z,21.9
2016-12-20T10:36:50.920Z,21.88
2016-12-20T10:37:21.429Z,21.8
2016-12-20T10:37:51.950Z,21.86
2016-12-20T10:38:22.483Z,21.84
2016-12-20T10:38:53.023Z,21.82
2016-12-20T10:39:23.509Z,21.82
2016-12-20T10:39:54.074Z,21.74
2016-12-20T10:40:24.588Z,21.84
2016-12-20T10:40:55.173Z,21.8
2016-12-20T10:41:25.736Z,21.88
2016-12-20T10:41:56.251Z,21.82
2016-12-20T10:42:26.772Z,21.83
2016-12-20T10:42:57.287Z,21.9
2016-12-20T10:43:27.788Z,21.83
2016-12-20T10:43:58.293Z,21.91
2016-12-20T10:44:28.815Z,21.82
2016-12-20T10:44:59.327Z,21.84
2016-12-20T10:45:30.428Z,21.82
2016-12-20T10:46:01.091Z,21.77
2016-12-20T10:46:31.627Z,21.82
2016-12-20T10:47:02.267Z,21.86
2016-12-20T10:47:32.786Z,21.86
2016-12-20T10:48:03.286Z,21.84
2016-12-20T10:48:33.786Z,21.84
2016-12-20T10:49:04.283Z,21.88
2016-12-20T10:49:34.814Z,21.83
2016-12-20T10:50:05.388Z,21.92
2016-12-20T10:50:36.152Z,21.82
2016-12-20T10:51:06.846Z,21.9
2016-12-20T10:51:37.361Z,21.82
2016-12-20T10:52:07.859Z,21.84
2016-12-20T10:52:38.382Z,21.86
2016-12-20T10:53:08.895Z,21.82
2016-12-20T10:53:39.466Z,21.82
2016-12-20T10:54:10.019Z,21.8
2016-12-20T10:54:40.696Z,21.96
2016-12-20T10:55:11.198Z,21.96
2016-12-20T10:55:41.755Z,21.79
2016-12-20T10:56:12.369Z,21.83
2016-12-20T10:56:42.857Z,21.72
2016-12-20T10:57:13.470Z,21.8
2016-12-20T10:57:44.080Z,21.84
2016-12-20T10:58:14.589Z,21.88
2016-12-20T10:58:45.190Z,21.84
2016-12-20T10:59:15.701Z,21.88
2016-12-20T10:59:46.231Z,21.79
2016-12-20T11:00:16.734Z,21.77
2016-12-20T11:00:47.260Z,21.77
2016-12-20T11:01:17.771Z,21.94
2016-12-20T11:01:48.303Z,21.88
2016-12-20T11:02:18.909Z,21.83
2016-12-20T11:02:49.419Z,21.8
2016-12-20T11:03:19.941Z,21.84
2016-12-20T11:03:50.449Z,21.79
2016-12-20T11:04:20.965Z,21.88
2016-12-20T11:04:51.462Z,21.82
2016-12-20T11:05:21.971Z,21.84
2016-12-20T11:05:52.474Z,21.82
2016-12-20T11:06:23.018Z,21.92
2016-12-20T11:06:53.546Z,21.92
2016-12-20T11:07:24.128Z,21.96
2016-12-20T11:07:54.622Z,21.94
2016-12-20T11:08:25.124Z,21.9
2016-12-20T11:08:55.654Z,21.88
2016-12-20T11:09:26.138Z,21.9
2016-12-20T11:09:56.648Z,21.83
2016-12-20T11:10:27.339Z,21.8
2016-12-20T11:10:57.858Z,21.79
2016-12-20T11:11:28.352Z,21.8
2016-12-20T11:11:58.859Z,21.82
2016-12-20T11:12:29.433Z,21.83
2016-12-20T11:12:59.948Z,21.86
2016-12-20T11:13:30.498Z,21.79
2016-12-20T11:14:01.082Z,21.68
2016-12-20T11:14:31.739Z,21.79
2016-12-20T11:15:02.278Z,21.84
2016-12-20T11:15:32.841Z,21.84
2016-12-20T11:16:03.355Z,21.77
2016-12-20T11:16:33.919Z,21.79
2016-12-20T11:17:04.408Z,21.82
2016-12-20T11:17:34.908Z,21.74
2016-12-20T11:18:05.441Z,21.75
2016-12-20T11:18:35.950Z,21.8
2016-12-20T11:19:06.562Z,21.77
2016-12-20T11:19:37.055Z,21.8
2016-12-20T11:20:07.622Z,21.79
2016-12-20T11:20:38.284Z,21.84
2016-12-20T11:21:08.777Z,21.82
2016-12-20T11:21:39.283Z,21.86
2016-12-20T11:22:09.881Z,21.77
2016-12-20T11:22:40.397Z,21.75
2016-12-20T11:23:10.918Z,21.79
2016-12-20T11:23:41.444Z,21.77
2016-12-20T11:24:11.983Z,21.75
2016-12-20T11:24:42.619Z,21.8
2016-12-20T11:25:13.126Z,21.79
2016-12-20T11:25:43.625Z,21.86
2016-12-20T11:26:14.230Z,21.84
2016-12-20T11:26:44.750Z,21.77
2016-12-20T11:27:15.261Z,21.9
2016-12-20T11:27:45.787Z,21.84
2016-12-20T11:28:16.295Z,21.86
2016-12-20T11:28:46.813Z,21.88
2016-12-20T11:29:17.371Z,21.83
2016-12-20T11:29:47.870Z,21.77
2016-12-20T11:30:18.529Z,21.71
2016-12-20T11:30:49.036Z,21.77
2016-12-20T11:31:19.566Z,21.72
2016-12-20T11:31:50.075Z,21.75
2016-12-20T11:32:20.576Z,21.83
2016-12-20T11:32:51.227Z,21.83
2016-12-20T11:33:21.734Z,21.82
2016-12-20T11:33:52.247Z,21.82
2016-12-20T11:34:22.750Z,21.83